Latest Weather Observations for Cessnock Airport

IDN60801

Issued at 4:52 pm EDT Thursday 21 February 2019 (issued every 10 minutes, with the page automatically refreshed every 10 minutes)

About weather observations | Map of weather stations | Latest weather observations for NSW | Other Formats
Station Details ID: 061260 Name: CESSNOCK AIRPORT AWS Lat: -32.79 Lon: 151.34 Height: 61.0 m
Data from the previous 72 hours. | See also: Recent months at Cessnock Airport
Date/Time
EDT
Temp
°C
App
Temp
°C
Dew
Point
°C
Rel
Hum
%
Delta-T
°C
Wind Press
QNH
hPa
Press
MSL
hPa
Rain since
9am
mm
Dir  Spd
km/h
Gust
km/h
Spd
kts
Gust
kts
21/04:30pm 26.1 23.5 16.9 57 5.7 SE 26 37 14 20 1013.9 1013.6 0.8
21/04:00pm 26.6 24.2 16.5 54 6.3 SE 24 33 13 18 1013.8 1013.5 0.8
21/03:30pm 25.8 23.7 16.1 55 6.0 SE 22 32 12 17 1014.1 1013.8 0.8
21/03:00pm 25.8 23.0 17.2 59 5.4 SE 28 43 15 23 1014.4 1014.1 0.8
21/02:34pm 25.8 23.0 17.2 59 5.4 SE 28 46 15 25 1014.3 1014.0 0.8
21/02:30pm 26.3 23.8 17.1 57 5.7 SE 26 41 14 22 1014.3 1014.0 0.8
21/02:00pm 25.6 23.5 18.0 63 4.8 SE 26 35 14 19 1014.6 1014.3 0.8
21/01:30pm 25.1 22.6 18.1 65 4.4 SE 28 41 15 22 1014.5 1014.2 0.8
21/01:00pm 25.0 23.7 18.2 66 4.3 SE 22 35 12 19 1014.5 1014.2 0.8
21/12:30pm 23.7 23.5 19.4 77 2.8 SSE 19 28 10 15 1014.8 1014.5 0.8
21/12:00pm 22.6 22.8 20.1 86 1.6 SSE 19 28 10 15 1014.9 1014.6 0.8
21/11:30am 22.0 22.6 20.3 90 1.1 SE 17 24 9 13 1014.8 1014.5 0.8
21/11:00am 22.0 23.5 20.5 91 1.0 ESE 13 22 7 12 1014.8 1014.5 0.6
21/10:30am 22.7 22.6 19.5 82 2.0 SE 19 26 10 14 1014.4 1014.1 0.0
21/10:00am 23.3 23.8 20.1 82 2.1 SE 17 26 9 14 1014.0 1013.7 0.0
21/09:30am 22.6 24.0 20.3 87 1.5 SSE 13 19 7 10 1013.9 1013.6 0.0
21/09:00am 22.0 23.9 20.6 92 0.9 SSE 11 15 6 8 1013.8 1013.5 8.4
21/08:30am 21.4 23.7 20.6 95 0.5 SSE 9 13 5 7 1013.4 1013.1 8.4
21/08:00am 20.9 22.9 19.9 94 0.6 SSE 9 13 5 7 1012.9 1012.6 8.4
21/07:30am 20.4 21.8 19.6 95 0.5 SSW 11 15 6 8 1012.4 1012.1 8.4
21/07:00am 20.2 21.9 19.4 95 0.5 SSW 9 13 5 7 1012.2 1011.9 8.4
21/06:30am 20.3 20.1 19.3 94 0.6 S 19 26 10 14 1011.9 1011.6 3.4
21/06:00am 20.3 20.4 18.4 89 1.2 SSW 15 20 8 11 1011.6 1011.3 0.0
21/05:30am 20.4 20.4 18.0 86 1.5 SSW 15 20 8 11 1011.2 1010.9 0.0
21/05:00am 20.2 20.0 17.6 85 1.6 SSW 15 22 8 12 1011.0 1010.7 0.0
21/04:30am 20.5 20.0 17.7 84 1.7 SSW 17 24 9 13 1010.9 1010.6 0.0
21/04:00am 21.2 19.3 17.6 80 2.2 SSW 24 33 13 18 1010.7 1010.4 0.0
21/03:30am 21.9 21.8 18.7 82 2.0 S 17 22 9 12 1010.7 1010.4 0.0
21/03:00am 22.6 23.4 19.9 85 1.7 SSW 15 20 8 11 1010.6 1010.3 0.0
21/02:30am 22.7 24.3 19.9 84 1.8 SSW 11 15 6 8 1010.5 1010.2 0.0
21/02:00am 22.6 24.9 19.9 85 1.7 S 7 9 4 5 1010.6 1010.3 0.0
21/01:30am 22.4 23.6 19.9 86 1.6 SSW 13 17 7 9 1010.6 1010.3 0.0
21/01:00am 22.7 24.3 19.9 84 1.8 SSW 11 15 6 8 1010.7 1010.4 0.0
21/12:30am 22.9 24.1 19.9 83 1.9 SSW 13 19 7 10 1010.9 1010.6 0.0
21/12:00am 23.0 24.2 19.8 82 2.1 SSW 13 19 7 10 1010.9 1010.6 0.0
 
Date/Time
EDT
Temp
°C
App
Temp
°C
Dew
Point
°C
Rel
Hum
%
Delta-T
°C
Wind Press
QNH
hPa
Press
MSL
hPa
Rain since
9am
mm
Dir  Spd
km/h
Gust
km/h
Spd
kts
Gust
kts
20/11:30pm 22.9 24.8 19.7 82 2.1 SSW 9 13 5 7 1010.8 1010.5 0.0
20/11:00pm 22.4 24.6 19.6 84 1.8 SSW 7 9 4 5 1010.8 1010.5 0.0
20/10:30pm 22.2 24.2 19.2 83 1.9 SW 7 11 4 6 1010.8 1010.5 0.0
20/10:00pm 22.7 24.4 19.3 81 2.2 SSW 9 13 5 7 1010.9 1010.6 0.0
20/09:30pm 22.7 23.3 19.5 82 2.0 S 15 20 8 11 1010.7 1010.4 0.0
20/09:00pm 23.0 23.7 19.6 81 2.2 S 15 26 8 14 1010.3 1010.0 0.0
20/08:30pm 23.2 23.0 19.4 79 2.4 S 19 24 10 13 1010.0 1009.7 0.0
20/08:00pm 23.4 23.4 18.9 76 2.9 S 17 22 9 12 1009.4 1009.1 0.0
20/07:30pm 23.9 23.5 19.0 74 3.1 S 19 24 10 13 1008.9 1008.6 0.0
20/07:00pm 24.2 24.6 19.1 73 3.3 SSW 15 22 8 12 1008.4 1008.1 0.0
20/06:30pm 24.8 24.3 18.7 69 3.9 SSW 19 26 10 14 1008.1 1007.8 0.0
20/06:00pm 25.6 25.2 19.0 67 4.2 SSW 19 28 10 15 1007.6 1007.3 0.0
20/05:30pm 25.8 24.7 18.7 65 4.5 SSW 22 32 12 17 1007.7 1007.4 0.0
20/05:00pm 26.3 25.7 18.9 63 4.8 SSW 20 30 11 16 1007.7 1007.4 0.0
20/04:30pm 26.6 25.5 18.7 62 5.1 SSW 22 32 12 17 1007.8 1007.5 0.0
20/04:00pm 26.3 25.7 18.9 63 4.8 SSW 20 35 11 19 1007.8 1007.5 0.0
20/03:30pm 26.5 25.0 18.6 62 5.0 SW 24 33 13 18 1007.9 1007.6 0.0
20/03:00pm 26.6 24.9 19.0 63 4.9 SW 26 37 14 20 1008.0 1007.7 0.0
20/02:30pm 26.8 25.2 18.4 60 5.4 SSW 24 33 13 18 1008.2 1007.9 0.0
20/02:00pm 27.1 26.5 18.9 61 5.3 SSW 20 28 11 15 1008.3 1008.0 0.0
20/01:30pm 26.8 26.4 18.9 62 5.1 SSW 19 24 10 13 1008.6 1008.3 0.0
20/01:00pm 27.1 26.9 19.7 64 4.8 SSW 20 28 11 15 1008.8 1008.5 0.0
20/12:30pm 26.6 26.5 19.5 65 4.6 SSW 19 28 10 15 1009.2 1008.9 0.0
20/12:00pm 25.9 25.6 19.1 66 4.4 SSW 19 28 10 15 1009.5 1009.2 0.0
20/11:30am 26.0 26.5 19.2 66 4.4 S 15 22 8 12 1009.8 1009.5 0.0
20/11:00am 25.2 25.6 19.1 69 3.9 SSW 15 20 8 11 1010.0 1009.7 0.0
20/10:30am 24.6 25.4 19.0 71 3.6 S 13 20 7 11 1010.0 1009.7 0.0
20/10:00am 23.5 24.2 18.8 75 3.0 SW 13 17 7 9 1010.3 1010.0 0.0
20/09:30am 23.8 23.9 19.1 75 3.0 S 17 20 9 11 1010.1 1009.8 0.0
20/09:00am 23.9 25.2 20.2 80 2.4 SSW 13 19 7 10 1010.1 1009.8 4.8
20/08:30am 22.4 23.2 19.0 81 2.2 SSW 13 17 7 9 1010.1 1009.8 4.8
20/08:00am 21.7 23.1 18.7 83 1.9 SW 9 13 5 7 1010.0 1009.7 4.8
20/07:30am 21.4 22.9 18.8 85 1.6 SW 9 13 5 7 1009.8 1009.5 4.8
20/07:00am 21.2 22.6 18.6 85 1.6 SW 9 15 5 8 1009.5 1009.2 4.8
20/06:30am 21.4 22.8 18.6 84 1.8 SW 9 13 5 7 1009.3 1009.0 4.8
20/06:00am 21.4 22.4 18.6 84 1.8 SSW 11 17 6 9 1009.3 1009.0 4.8
20/05:30am 21.4 22.8 18.6 84 1.8 SW 9 13 5 7 1009.3 1009.0 4.8
20/05:00am 21.3 22.3 18.7 85 1.6 SSW 11 15 6 8 1009.2 1008.9 4.8
20/04:30am 21.5 23.0 18.9 85 1.6 SW 9 15 5 8 1009.3 1009.0 4.8
20/04:00am 21.5 22.1 18.7 84 1.8 SSW 13 17 7 9 1009.5 1009.2 4.8
20/03:30am 22.0 22.9 19.2 84 1.8 SSW 13 19 7 10 1009.5 1009.2 4.8
20/03:00am 22.1 22.9 19.1 83 1.9 SSW 13 20 7 11 1009.5 1009.2 4.8
20/02:30am 22.1 22.5 19.1 83 1.9 S 15 19 8 10 1009.7 1009.4 4.8
20/02:00am 22.1 23.3 19.1 83 1.9 SSW 11 15 6 8 1010.0 1009.7 4.8
20/01:30am 21.8 23.3 18.8 83 1.9 SSW 9 11 5 6 1010.3 1010.0 4.8
20/01:00am 22.0 22.8 19.0 83 1.9 S 13 19 7 10 1010.6 1010.3 4.8
20/12:30am 22.3 22.8 19.3 83 1.9 SSW 15 22 8 12 1010.8 1010.5 4.8
20/12:00am 22.8 23.9 19.6 82 2.1 S 13 17 7 9 1011.2 1010.9 4.8
 
Date/Time
EDT
Temp
°C
App
Temp
°C
Dew
Point
°C
Rel
Hum
%
Delta-T
°C
Wind Press
QNH
hPa
Press
MSL
hPa
Rain since
9am
mm
Dir  Spd
km/h
Gust
km/h
Spd
kts
Gust
kts
19/11:30pm 23.0 23.8 19.8 82 2.1 S 15 20 8 11 1011.3 1011.0 4.8
19/11:00pm 23.1 24.8 20.1 83 1.9 S 11 15 6 8 1011.5 1011.2 4.8
19/10:30pm 23.1 24.3 19.9 82 2.1 S 13 20 7 11 1011.3 1011.0 4.8
19/10:00pm 23.0 24.8 20.3 85 1.8 S 11 13 6 7 1010.8 1010.5 4.8
19/09:30pm 22.9 23.9 20.2 85 1.7 S 15 22 8 12 1010.3 1010.0 4.8
19/09:00pm 22.8 24.6 20.3 86 1.6 SSW 11 19 6 10 1009.9 1009.6 4.8
19/08:30pm 23.7 24.4 20.4 82 2.1 SSW 17 24 9 13 1009.7 1009.4 4.6
19/08:00pm 23.8 24.1 20.5 82 2.2 SSW 19 24 10 13 1008.7 1008.4 4.6
19/07:30pm 24.0 25.0 20.3 80 2.4 SSE 15 22 8 12 1008.2 1007.9 4.6
19/07:00pm 24.2 24.9 20.5 80 2.4 SSE 17 26 9 14 1007.2 1006.9 4.6
19/06:30pm 23.9 25.6 21.0 84 1.9 S 13 20 7 11 1006.5 1006.2 4.6
19/06:00pm 24.0 26.9 22.4 91 1.1 SE 11 19 6 10 1006.1 1005.8 4.6
19/05:30pm 23.2 24.4 21.5 90 1.1 SSE 17 24 9 13 1004.6 1004.4 4.4
19/05:00pm 24.4 22.7 19.9 76 2.9 S 28 41 15 22 1005.2 1005.0 0.0
19/04:30pm 26.8 24.9 19.4 64 4.8 SSE 28 41 15 22 1003.7 1003.5 0.0
19/04:12pm 28.1 25.4 19.3 58 5.7 SSE 32 50 17 27 1003.5 1003.3 0.0
19/04:00pm 28.0 25.0 19.0 58 5.8 SSE 33 46 18 25 1003.4 1003.2 0.0
19/03:30pm 29.5 27.8 18.9 53 6.9 SE 26 35 14 19 1002.6 1002.3 0.0
19/03:00pm 33.2 29.1 16.5 36 10.6 SSE 33 46 18 25 1002.3 1002.0 0.0
19/02:42pm 35.3 32.6 15.6 31 12.4 SW 24 37 13 20 1002.2 1001.9 0.0
19/02:30pm 40.5 35.9 6.7 13 19.1 WSW 20 32 11 17 1002.0 1001.7 0.0
19/02:00pm 39.2 35.3 8.8 16 17.7 NW 19 32 10 17 1002.3 1002.0 0.0
19/01:30pm 37.7 35.7 10.1 19 16.2 W 11 26 6 14 1002.8 1002.5 0.0
19/01:00pm 37.4 35.4 11.4 21 15.6 NNW 13 19 7 10 1003.1 1002.8 0.0
19/12:30pm 35.4 33.1 11.7 23 14.1 NW 15 26 8 14 1003.9 1003.7 0.0
19/12:00pm 35.2 33.4 12.2 25 13.8 NW 13 20 7 11 1004.2 1004.0 0.0
19/11:30am 35.1 33.7 13.3 27 13.3 NNW 13 24 7 13 1004.5 1004.3 0.0
19/11:00am 32.7 31.3 13.4 31 11.7 NNW 13 20 7 11 1005.0 1004.8 0.0
19/10:30am 32.1 30.3 13.3 31 11.3 N 15 20 8 11 1005.2 1005.0 0.0
19/10:00am 29.8 28.7 13.1 36 10.0 N 11 15 6 8 1005.4 1005.2 0.0
19/09:30am 29.4 28.5 13.6 38 9.5 N 11 15 6 8 1005.4 1005.2 0.0
19/09:00am 27.8 29.3 16.7 50 6.9 NNE 4 7 2 4 1005.5 1005.3 0.0
19/08:30am 25.1 25.7 15.4 55 5.9 SSE 6 7 3 4 1005.5 1005.3 0.0
19/08:00am 24.1 24.6 15.6 59 5.2 SSW 7 9 4 5 1005.5 1005.3 0.0
19/07:30am 22.1 22.8 15.7 67 3.8 SSE 6 7 3 4 1005.2 1005.0 0.0
19/07:00am 22.4 23.0 15.3 64 4.3 ENE 6 11 3 6 1005.3 1005.1 0.0
19/06:30am 23.2 23.9 15.5 62 4.6 NNW 6 15 3 8 1005.3 1005.1 0.0
19/06:00am 23.4 23.9 14.9 59 5.1 N 6 9 3 5 1004.8 1004.6 0.0
19/05:30am 24.0 24.2 14.7 56 5.5 NNE 7 9 4 5 1004.6 1004.4 0.0
19/05:00am 24.4 24.6 14.2 53 6.1 NW 6 9 3 5 1005.2 1005.0 0.0
19/04:30am 25.1 24.3 13.9 49 6.6 SSE 11 13 6 7 1005.1 1004.9 0.0
19/04:00am 24.5 24.0 13.7 51 6.4 SE 9 13 5 7 1005.5 1005.3 0.0
19/03:30am 25.6 24.5 14.4 50 6.7 SW 13 20 7 11 1005.7 1005.4 0.0
19/03:00am 21.1 21.9 15.9 72 3.1 SSE 6 9 3 5 1005.3 1005.1 0.0
19/02:30am 22.6 22.9 15.9 66 4.0 SSE 9 11 5 6 1005.2 1005.0 0.0
19/02:00am 21.0 20.5 16.0 73 3.0 SSW 13 17 7 9 1005.3 1005.1 0.0
19/01:30am 20.1 20.8 15.7 76 2.6 SW 6 11 3 6 1004.8 1004.6 0.0
19/01:00am 20.3 20.9 15.3 73 3.0 SW 6 9 3 5 1005.1 1004.9 0.0
19/12:30am 21.0 22.1 15.5 71 3.3 SW 4 7 2 4 1005.3 1005.1 0.0
19/12:00am 21.5 21.9 15.3 68 3.7 SSW 7 9 4 5 1005.5 1005.3 0.0
 
Date/Time
EDT
Temp
°C
App
Temp
°C
Dew
Point
°C
Rel
Hum
%
Delta-T
°C
Wind Press
QNH
hPa
Press
MSL
hPa
Rain since
9am
mm
Dir  Spd
km/h
Gust
km/h
Spd
kts
Gust
kts
18/11:30pm 22.7 22.8 15.5 64 4.3 SW 9 11 5 6 1005.8 1005.5 0.0
18/11:00pm 24.5 24.9 15.4 57 5.5 SSW 7 9 4 5 1005.9 1005.6 0.0
18/10:30pm 25.3 25.4 15.6 55 5.9 S 9 11 5 6 1006.1 1005.8 0.0
18/10:00pm 26.2 26.2 15.3 51 6.6 S 9 13 5 7 1006.0 1005.7 0.0
18/09:30pm 27.0 26.6 15.1 48 7.2 SSE 11 17 6 9 1005.9 1005.6 0.0
18/09:00pm 28.5 28.3 14.7 43 8.4 SSE 9 13 5 7 1005.5 1005.3 0.0
18/08:30pm 29.1 29.0 13.3 37 9.4 SE 6 9 3 5 1005.1 1004.9 0.0
18/08:00pm 30.7 29.7 13.5 35 10.4 E 11 17 6 9 1004.8 1004.6 0.0
18/07:30pm 31.8 30.0 14.4 34 10.6 E 17 26 9 14 1004.4 1004.2 0.0
18/07:00pm 33.2 30.6 14.8 33 11.4 E 22 32 12 17 1004.0 1003.8 0.0
18/06:30pm 34.4 30.8 14.3 30 12.4 E 26 33 14 18 1003.8 1003.6 0.0
18/06:00pm 35.5 31.3 13.6 26 13.5 E 28 41 15 22 1003.8 1003.6 0.0
18/05:30pm 37.0 32.8 11.1 21 15.4 ENE 24 33 13 18 1003.8 1003.6 0.0
18/05:00pm 37.9 33.6 6.8 15 17.5 ENE 19 30 10 16 1004.0 1003.8 0.0

Other formats

Comma delimited format used in spreadsheet applications
http://www.bom.gov.au/fwo/IDN60801/IDN60801.95771.axf

JavaScript Object Notation format (JSON) in row-major order
http://www.bom.gov.au/fwo/IDN60801/IDN60801.95771.json

Data quality

Most of these data are generated automatically and are frequently updated. Quality checks on data are not normally performed. It is possible for incorrect values to appear. Refer to information at About Latest Weather Observations and please check the disclaimer before using these data.